Portada
METAR-TAF:

METAR-TAF

Aeropuertos :

Aeropuerto de Burgos

Burgos, España

latitud: 42-22N, longitud: 003-38W, altitud: 894 m

Observación

El informe se hizo hace 17 minutos, a las 13:30 UTC
Viento 6 kt del norte-noroeste, variando entre oeste-noroeste y norte
Temperatura 13°C
Humedad 67%
Presión 1018 hPa
Visibilidad 10 km o más
Cielo nuboso a una altura de 2800 ft

METAR: LEBG 261330Z 34006KT 300V010 9999 BKN028 13/07 Q1018

Hora: 15:47 (13:47 UTC)

Pronóstico

El informe se hizo hace 5 horas y 47 minutos, a las 08:00 UTC
Pronóstico válido del 26 a las 09 UTC al 27 a las 09 UTC
Viento 6 kt del norte
Visibilidad 10 km o más
Cielo nuboso a una altura de 2500 ft
Probabilidad 30% :
Temporalmente
del 27 a las 03 UTC al 27 a las 09 UTC
Visibilidad: 3000 m
Cielo nuboso a una altura de 1200 ft
neblina

TAF: LEBG 260800Z 2609/2709 01006KT 9999 BKN025 TX18/2615Z TN04/2706Z PROB30 TEMPO 2703/2709 3000 BR BKN012

Observaciones y pronósticos meteorológicos de más de 4000 aeropuertos (mensajes METAR y TAF).

Los puntos amarillos y rojos representan las estaciones disponibles.

Ponga el ratón en el punto deseado para ver el nombre de la estación.

Haga clic para ver las observaciones y los pronósticos meteorológicos.

Para cambiar el mapa : haga clic en los botones verdes con una cruz de color negro para hacer un zoom, en el botón verde con un guión para alejar o en las flechas verdes para mapas adyacentes.


METAR-TAF: